Terminal Aerodrome Forecast
Issued by NWS

Home | Current Version | Previous Version | Text Only | Print | Product List | Glossary On
Versions: 1 2 3 4 5 6 7 8 9 10 11 12 13 14 15
000
FTUS41 KBTV 300539
TAFMPV
TAF
KMPV 300539Z 3006/3106 18014KT 1 1/2SM -SN BR OVC023
      TEMPO 3006/3010 1SM -SN BR OVC018
     FM301000 18009KT 1SM -SN BR OVC015
     FM301700 29005KT 1SM -SN BR OVC015
     FM310000 32012G18KT 1SM -SN BR OVC019=

USA.gov is the U.S. government's official web portal to all federal, state and local government web resources and services.